Port Everglades, Florida
Current Conditions -  °F | °C
As of 12:53 PM on Friday 24 Oct 2014 (Local Time) from KFLL Reporting Station
Overcast Overcast  
Wind Chill: 78°   Ceiling: 2400
Heat Index: 80°   Visibility: 10mi
Dew Point: 72°   Wind: 18mph
Humidity: 81%   Direction: 60°ENE
Pressure: 29.86"   Gusts: 32mph
Location:  26.0999°N, 80.132°W
Report Text: KFLL 241653Z 06016G28KT 10SM BKN024 BKN030 OVC040 26/22 A2986 RMK AO2 PK WND 05028/1620 RAB22E52 SLP111 P0002 T02560222
Loading
Personal Weather Stations






























Interactive Weather Map
Tropical Storm Tracking
New forecast layout! Learn more

10-Day Weather Forecast

Advertisements
Track Severe Weather on mobile